Terminal Aerodrome Forecast
Issued by NWS Sterling, VA

Home | Current Version | Previous Version | Text Only | Print | Product List | Glossary On
Versions: 1 2 3 4 5 6 7 8 9 10 11 12 13 14 15 16 17 18 19 20 21 22
000
FTUS41 KLWX 301729
TAFDCA
TAF
KDCA 301729Z 3018/3118 15004KT P6SM SCT025 OVC150
     FM310500 VRB03KT 3SM BR BKN060 BKN150
     FM311300 35004KT P6SM SCT140 BKN200=

USA.gov is the U.S. government's official web portal to all federal, state and local government web resources and services.